sensor_id;sensor_type;location;lat;lon;timestamp;P1;durP1;ratioP1;P2;durP2;ratioP2
25419;SDS011;13354;48.174;11.566;2024-01-30T00:01:09;12.65;;;6.72;;
25419;SDS011;13354;48.174;11.566;2024-01-30T00:03:35;13.45;;;6.72;;
25419;SDS011;13354;48.174;11.566;2024-01-30T00:06:00;12.23;;;7.18;;
25419;SDS011;13354;48.174;11.566;2024-01-30T00:08:26;9.35;;;6.60;;
25419;SDS011;13354;48.174;11.566;2024-01-30T00:10:51;12.73;;;7.20;;
25419;SDS011;13354;48.174;11.566;2024-01-30T00:13:16;10.43;;;6.57;;
25419;SDS011;13354;48.174;11.566;2024-01-30T00:15:44;11.82;;;7.10;;
25419;SDS011;13354;48.174;11.566;2024-01-30T00:18:09;14.60;;;6.82;;
25419;SDS011;13354;48.174;11.566;2024-01-30T00:20:34;12.02;;;6.57;;
25419;SDS011;13354;48.174;11.566;2024-01-30T00:23:00;10.35;;;6.90;;
25419;SDS011;13354;48.174;11.566;2024-01-30T00:25:26;11.15;;;6.55;;
25419;SDS011;13354;48.174;11.566;2024-01-30T00:27:51;12.52;;;6.28;;
25419;SDS011;13354;48.174;11.566;2024-01-30T00:30:17;13.02;;;6.75;;
25419;SDS011;13354;48.174;11.566;2024-01-30T00:32:42;12.68;;;6.82;;
25419;SDS011;13354;48.174;11.566;2024-01-30T00:35:08;11.82;;;6.85;;
25419;SDS011;13354;48.174;11.566;2024-01-30T00:37:35;10.35;;;6.72;;
25419;SDS011;13354;48.174;11.566;2024-01-30T00:40:00;9.95;;;6.25;;
25419;SDS011;13354;48.174;11.566;2024-01-30T00:42:26;11.38;;;6.43;;
25419;SDS011;13354;48.174;11.566;2024-01-30T00:44:51;9.35;;;5.68;;
25419;SDS011;13354;48.174;11.566;2024-01-30T00:47:16;9.27;;;6.15;;
25419;SDS011;13354;48.174;11.566;2024-01-30T00:49:42;13.40;;;6.60;;
25419;SDS011;13354;48.174;11.566;2024-01-30T00:52:07;11.10;;;5.93;;
25419;SDS011;13354;48.174;11.566;2024-01-30T00:54:33;12.15;;;6.70;;
25419;SDS011;13354;48.174;11.566;2024-01-30T00:56:58;12.95;;;6.30;;
25419;SDS011;13354;48.174;11.566;2024-01-30T00:59:24;13.13;;;6.65;;
25419;SDS011;13354;48.174;11.566;2024-01-30T01:01:50;9.13;;;5.68;;
25419;SDS011;13354;48.174;11.566;2024-01-30T01:04:15;12.73;;;5.75;;
25419;SDS011;13354;48.174;11.566;2024-01-30T01:06:41;9.57;;;5.45;;
25419;SDS011;13354;48.174;11.566;2024-01-30T01:09:09;11.02;;;5.65;;
25419;SDS011;13354;48.174;11.566;2024-01-30T01:11:35;11.55;;;5.63;;
25419;SDS011;13354;48.174;11.566;2024-01-30T01:14:00;10.68;;;6.53;;
25419;SDS011;13354;48.174;11.566;2024-01-30T01:16:26;11.70;;;5.85;;
25419;SDS011;13354;48.174;11.566;2024-01-30T01:18:51;10.90;;;6.57;;
25419;SDS011;13354;48.174;11.566;2024-01-30T01:21:16;12.60;;;5.50;;
25419;SDS011;13354;48.174;11.566;2024-01-30T01:23:42;9.15;;;5.50;;
25419;SDS011;13354;48.174;11.566;2024-01-30T01:26:07;8.50;;;5.75;;
25419;SDS011;13354;48.174;11.566;2024-01-30T01:28:34;11.52;;;5.93;;
25419;SDS011;13354;48.174;11.566;2024-01-30T01:31:00;10.52;;;5.43;;
25419;SDS011;13354;48.174;11.566;2024-01-30T01:33:30;9.18;;;5.05;;
25419;SDS011;13354;48.174;11.566;2024-01-30T01:35:58;11.75;;;5.70;;
25419;SDS011;13354;48.174;11.566;2024-01-30T01:38:24;9.98;;;5.55;;
25419;SDS011;13354;48.174;11.566;2024-01-30T01:40:50;8.25;;;5.82;;
25419;SDS011;13354;48.174;11.566;2024-01-30T01:43:16;10.85;;;5.25;;
25419;SDS011;13354;48.174;11.566;2024-01-30T01:45:41;11.27;;;6.47;;
25419;SDS011;13354;48.174;11.566;2024-01-30T01:48:07;11.00;;;6.32;;
25419;SDS011;13354;48.174;11.566;2024-01-30T01:50:33;9.52;;;5.75;;
25419;SDS011;13354;48.174;11.566;2024-01-30T01:52:59;9.60;;;5.90;;
25419;SDS011;13354;48.174;11.566;2024-01-30T01:55:24;10.20;;;5.82;;
25419;SDS011;13354;48.174;11.566;2024-01-30T01:57:52;9.18;;;5.55;;
25419;SDS011;13354;48.174;11.566;2024-01-30T02:00:18;9.00;;;5.32;;
25419;SDS011;13354;48.174;11.566;2024-01-30T02:02:44;7.22;;;5.05;;
25419;SDS011;13354;48.174;11.566;2024-01-30T02:05:10;9.82;;;5.53;;
25419;SDS011;13354;48.174;11.566;2024-01-30T02:07:36;10.52;;;5.43;;
25419;SDS011;13354;48.174;11.566;2024-01-30T02:10:02;9.70;;;5.43;;
25419;SDS011;13354;48.174;11.566;2024-01-30T02:12:28;9.73;;;5.13;;
25419;SDS011;13354;48.174;11.566;2024-01-30T02:14:54;6.95;;;5.07;;
25419;SDS011;13354;48.174;11.566;2024-01-30T02:17:20;8.75;;;5.32;;
25419;SDS011;13354;48.174;11.566;2024-01-30T02:19:46;9.25;;;5.22;;
25419;SDS011;13354;48.174;11.566;2024-01-30T02:22:11;10.48;;;5.40;;
25419;SDS011;13354;48.174;11.566;2024-01-30T02:24:37;8.98;;;5.35;;
25419;SDS011;13354;48.174;11.566;2024-01-30T02:27:03;8.95;;;5.57;;
25419;SDS011;13354;48.174;11.566;2024-01-30T02:29:28;7.43;;;5.05;;
25419;SDS011;13354;48.174;11.566;2024-01-30T02:31:54;7.03;;;4.82;;
25419;SDS011;13354;48.174;11.566;2024-01-30T02:34:19;9.20;;;5.55;;
25419;SDS011;13354;48.174;11.566;2024-01-30T02:36:45;8.88;;;4.78;;
25419;SDS011;13354;48.174;11.566;2024-01-30T02:39:10;9.50;;;5.43;;
25419;SDS011;13354;48.174;11.566;2024-01-30T02:41:36;9.82;;;5.85;;
25419;SDS011;13354;48.174;11.566;2024-01-30T02:44:02;9.85;;;5.22;;
25419;SDS011;13354;48.174;11.566;2024-01-30T02:46:28;8.25;;;5.13;;
25419;SDS011;13354;48.174;11.566;2024-01-30T02:48:54;9.15;;;5.25;;
25419;SDS011;13354;48.174;11.566;2024-01-30T02:51:19;9.95;;;5.03;;
25419;SDS011;13354;48.174;11.566;2024-01-30T02:53:44;7.68;;;5.07;;
25419;SDS011;13354;48.174;11.566;2024-01-30T02:56:10;11.02;;;5.03;;
25419;SDS011;13354;48.174;11.566;2024-01-30T02:58:36;10.30;;;5.25;;
25419;SDS011;13354;48.174;11.566;2024-01-30T03:01:02;10.50;;;5.68;;
25419;SDS011;13354;48.174;11.566;2024-01-30T03:03:27;8.70;;;5.10;;
25419;SDS011;13354;48.174;11.566;2024-01-30T03:05:53;8.48;;;5.40;;
25419;SDS011;13354;48.174;11.566;2024-01-30T03:08:19;10.82;;;5.35;;
25419;SDS011;13354;48.174;11.566;2024-01-30T03:10:44;9.77;;;5.18;;
25419;SDS011;13354;48.174;11.566;2024-01-30T03:13:10;9.57;;;5.30;;
25419;SDS011;13354;48.174;11.566;2024-01-30T03:15:35;8.85;;;5.15;;
25419;SDS011;13354;48.174;11.566;2024-01-30T03:18:01;10.18;;;5.18;;
25419;SDS011;13354;48.174;11.566;2024-01-30T03:20:28;10.15;;;5.50;;
25419;SDS011;13354;48.174;11.566;2024-01-30T03:22:54;8.25;;;5.38;;
25419;SDS011;13354;48.174;11.566;2024-01-30T03:25:20;7.88;;;5.07;;
25419;SDS011;13354;48.174;11.566;2024-01-30T03:27:46;7.60;;;5.07;;
25419;SDS011;13354;48.174;11.566;2024-01-30T03:30:11;9.35;;;5.30;;
25419;SDS011;13354;48.174;11.566;2024-01-30T03:32:37;8.75;;;5.15;;
25419;SDS011;13354;48.174;11.566;2024-01-30T03:35:02;7.75;;;5.43;;
25419;SDS011;13354;48.174;11.566;2024-01-30T03:37:28;9.13;;;5.18;;
25419;SDS011;13354;48.174;11.566;2024-01-30T03:39:53;8.60;;;5.53;;
25419;SDS011;13354;48.174;11.566;2024-01-30T03:42:19;10.77;;;5.20;;
25419;SDS011;13354;48.174;11.566;2024-01-30T03:44:44;8.70;;;5.32;;
25419;SDS011;13354;48.174;11.566;2024-01-30T03:47:09;9.48;;;5.07;;
25419;SDS011;13354;48.174;11.566;2024-01-30T03:49:35;8.43;;;5.40;;
25419;SDS011;13354;48.174;11.566;2024-01-30T03:52:00;9.52;;;5.35;;
25419;SDS011;13354;48.174;11.566;2024-01-30T03:54:25;9.48;;;5.28;;
25419;SDS011;13354;48.174;11.566;2024-01-30T03:56:51;7.68;;;5.43;;
25419;SDS011;13354;48.174;11.566;2024-01-30T03:59:16;7.75;;;4.78;;
25419;SDS011;13354;48.174;11.566;2024-01-30T04:01:47;8.60;;;4.97;;
25419;SDS011;13354;48.174;11.566;2024-01-30T04:04:12;8.85;;;4.80;;
25419;SDS011;13354;48.174;11.566;2024-01-30T04:06:38;9.60;;;4.90;;
25419;SDS011;13354;48.174;11.566;2024-01-30T04:09:03;10.68;;;5.15;;
25419;SDS011;13354;48.174;11.566;2024-01-30T04:11:28;11.60;;;6.35;;
25419;SDS011;13354;48.174;11.566;2024-01-30T04:13:54;8.18;;;5.60;;
25419;SDS011;13354;48.174;11.566;2024-01-30T04:16:22;13.15;;;7.22;;
25419;SDS011;13354;48.174;11.566;2024-01-30T04:18:48;11.05;;;6.45;;
25419;SDS011;13354;48.174;11.566;2024-01-30T04:21:13;7.80;;;5.35;;
25419;SDS011;13354;48.174;11.566;2024-01-30T04:23:39;11.45;;;5.90;;
25419;SDS011;13354;48.174;11.566;2024-01-30T04:26:05;7.93;;;5.40;;
25419;SDS011;13354;48.174;11.566;2024-01-30T04:28:31;9.25;;;4.85;;
25419;SDS011;13354;48.174;11.566;2024-01-30T04:30:56;7.60;;;4.45;;
25419;SDS011;13354;48.174;11.566;2024-01-30T04:33:22;6.72;;;4.80;;
25419;SDS011;13354;48.174;11.566;2024-01-30T04:35:47;7.65;;;4.60;;
25419;SDS011;13354;48.174;11.566;2024-01-30T04:38:12;7.47;;;5.13;;
25419;SDS011;13354;48.174;11.566;2024-01-30T04:40:39;9.02;;;4.65;;
25419;SDS011;13354;48.174;11.566;2024-01-30T04:43:05;7.50;;;4.90;;
25419;SDS011;13354;48.174;11.566;2024-01-30T04:45:30;11.95;;;4.72;;
25419;SDS011;13354;48.174;11.566;2024-01-30T04:47:55;9.40;;;4.30;;
25419;SDS011;13354;48.174;11.566;2024-01-30T04:50:21;7.63;;;4.25;;
25419;SDS011;13354;48.174;11.566;2024-01-30T04:52:46;10.02;;;4.72;;
25419;SDS011;13354;48.174;11.566;2024-01-30T04:55:11;7.65;;;4.50;;
25419;SDS011;13354;48.174;11.566;2024-01-30T04:57:37;7.63;;;4.90;;
25419;SDS011;13354;48.174;11.566;2024-01-30T05:00:02;8.63;;;4.90;;
25419;SDS011;13354;48.174;11.566;2024-01-30T05:02:28;6.70;;;4.53;;
25419;SDS011;13354;48.174;11.566;2024-01-30T05:04:53;7.95;;;4.40;;
25419;SDS011;13354;48.174;11.566;2024-01-30T05:07:19;7.18;;;4.60;;
25419;SDS011;13354;48.174;11.566;2024-01-30T05:09:44;8.80;;;4.80;;
25419;SDS011;13354;48.174;11.566;2024-01-30T05:12:09;7.88;;;4.43;;
25419;SDS011;13354;48.174;11.566;2024-01-30T05:14:35;11.73;;;4.80;;
25419;SDS011;13354;48.174;11.566;2024-01-30T05:17:00;7.13;;;4.63;;
25419;SDS011;13354;48.174;11.566;2024-01-30T05:19:28;12.13;;;4.97;;
25419;SDS011;13354;48.174;11.566;2024-01-30T05:21:53;8.25;;;4.55;;
25419;SDS011;13354;48.174;11.566;2024-01-30T05:24:18;12.88;;;5.25;;
25419;SDS011;13354;48.174;11.566;2024-01-30T05:26:44;7.40;;;4.68;;
25419;SDS011;13354;48.174;11.566;2024-01-30T05:29:09;7.88;;;4.80;;
25419;SDS011;13354;48.174;11.566;2024-01-30T05:31:34;9.20;;;4.95;;
25419;SDS011;13354;48.174;11.566;2024-01-30T05:34:00;9.05;;;4.07;;
25419;SDS011;13354;48.174;11.566;2024-01-30T05:36:25;7.28;;;4.65;;
25419;SDS011;13354;48.174;11.566;2024-01-30T05:38:51;10.15;;;4.30;;
25419;SDS011;13354;48.174;11.566;2024-01-30T05:41:16;7.18;;;4.05;;
25419;SDS011;13354;48.174;11.566;2024-01-30T05:43:42;10.45;;;4.03;;
25419;SDS011;13354;48.174;11.566;2024-01-30T05:46:07;5.85;;;4.18;;
25419;SDS011;13354;48.174;11.566;2024-01-30T05:48:32;7.20;;;4.13;;
25419;SDS011;13354;48.174;11.566;2024-01-30T05:51:00;9.68;;;4.75;;
25419;SDS011;13354;48.174;11.566;2024-01-30T05:53:25;7.78;;;4.45;;
25419;SDS011;13354;48.174;11.566;2024-01-30T05:55:50;7.22;;;4.53;;
25419;SDS011;13354;48.174;11.566;2024-01-30T05:58:16;8.38;;;4.43;;
25419;SDS011;13354;48.174;11.566;2024-01-30T06:00:41;8.18;;;4.38;;
25419;SDS011;13354;48.174;11.566;2024-01-30T06:03:07;10.30;;;4.65;;
25419;SDS011;13354;48.174;11.566;2024-01-30T06:05:32;8.80;;;4.68;;
25419;SDS011;13354;48.174;11.566;2024-01-30T06:07:58;7.00;;;4.40;;
25419;SDS011;13354;48.174;11.566;2024-01-30T06:10:23;6.85;;;4.45;;
25419;SDS011;13354;48.174;11.566;2024-01-30T06:12:48;8.23;;;4.80;;
25419;SDS011;13354;48.174;11.566;2024-01-30T06:15:14;7.22;;;4.57;;
25419;SDS011;13354;48.174;11.566;2024-01-30T06:17:39;8.48;;;4.82;;
25419;SDS011;13354;48.174;11.566;2024-01-30T06:20:05;5.95;;;4.20;;
25419;SDS011;13354;48.174;11.566;2024-01-30T06:22:31;8.20;;;4.75;;
25419;SDS011;13354;48.174;11.566;2024-01-30T06:24:57;8.18;;;4.43;;
25419;SDS011;13354;48.174;11.566;2024-01-30T06:27:22;10.05;;;4.78;;
25419;SDS011;13354;48.174;11.566;2024-01-30T06:29:47;8.07;;;4.50;;
25419;SDS011;13354;48.174;11.566;2024-01-30T06:32:13;18.02;;;10.55;;
25419;SDS011;13354;48.174;11.566;2024-01-30T06:34:38;15.30;;;8.80;;
25419;SDS011;13354;48.174;11.566;2024-01-30T06:37:05;9.82;;;5.72;;
25419;SDS011;13354;48.174;11.566;2024-01-30T06:39:31;8.55;;;5.00;;
25419;SDS011;13354;48.174;11.566;2024-01-30T06:41:56;10.88;;;6.13;;
25419;SDS011;13354;48.174;11.566;2024-01-30T06:44:21;8.90;;;5.18;;
25419;SDS011;13354;48.174;11.566;2024-01-30T06:46:47;8.10;;;4.75;;
25419;SDS011;13354;48.174;11.566;2024-01-30T06:49:12;8.68;;;5.05;;
25419;SDS011;13354;48.174;11.566;2024-01-30T06:51:37;12.02;;;6.50;;
25419;SDS011;13354;48.174;11.566;2024-01-30T06:54:03;10.75;;;5.32;;
25419;SDS011;13354;48.174;11.566;2024-01-30T06:56:29;15.25;;;5.93;;
25419;SDS011;13354;48.174;11.566;2024-01-30T06:58:55;12.23;;;5.97;;
25419;SDS011;13354;48.174;11.566;2024-01-30T07:01:20;16.38;;;5.47;;
25419;SDS011;13354;48.174;11.566;2024-01-30T07:03:46;9.45;;;6.07;;
25419;SDS011;13354;48.174;11.566;2024-01-30T07:06:11;12.98;;;5.75;;
25419;SDS011;13354;48.174;11.566;2024-01-30T07:08:37;11.25;;;5.28;;
25419;SDS011;13354;48.174;11.566;2024-01-30T07:11:04;8.70;;;5.60;;
25419;SDS011;13354;48.174;11.566;2024-01-30T07:13:30;13.82;;;5.82;;
25419;SDS011;13354;48.174;11.566;2024-01-30T07:15:55;10.52;;;5.22;;
25419;SDS011;13354;48.174;11.566;2024-01-30T07:18:21;8.38;;;4.78;;
25419;SDS011;13354;48.174;11.566;2024-01-30T07:20:46;11.90;;;5.03;;
25419;SDS011;13354;48.174;11.566;2024-01-30T07:23:13;9.32;;;4.75;;
25419;SDS011;13354;48.174;11.566;2024-01-30T07:25:41;6.82;;;4.25;;
25419;SDS011;13354;48.174;11.566;2024-01-30T07:28:06;10.57;;;5.13;;
25419;SDS011;13354;48.174;11.566;2024-01-30T07:30:36;7.82;;;4.60;;
25419;SDS011;13354;48.174;11.566;2024-01-30T07:33:01;9.70;;;4.32;;
25419;SDS011;13354;48.174;11.566;2024-01-30T07:35:27;11.10;;;4.40;;
25419;SDS011;13354;48.174;11.566;2024-01-30T07:37:52;9.88;;;3.72;;
25419;SDS011;13354;48.174;11.566;2024-01-30T07:40:17;7.50;;;3.88;;
25419;SDS011;13354;48.174;11.566;2024-01-30T07:42:43;9.40;;;4.03;;
25419;SDS011;13354;48.174;11.566;2024-01-30T07:45:08;7.20;;;3.63;;
25419;SDS011;13354;48.174;11.566;2024-01-30T07:47:34;7.75;;;3.75;;
25419;SDS011;13354;48.174;11.566;2024-01-30T07:49:59;8.13;;;4.03;;
25419;SDS011;13354;48.174;11.566;2024-01-30T07:52:25;10.85;;;5.50;;
25419;SDS011;13354;48.174;11.566;2024-01-30T07:54:51;12.52;;;4.88;;
25419;SDS011;13354;48.174;11.566;2024-01-30T07:57:16;10.07;;;4.90;;
25419;SDS011;13354;48.174;11.566;2024-01-30T07:59:42;8.57;;;4.07;;
25419;SDS011;13354;48.174;11.566;2024-01-30T08:02:12;8.05;;;3.60;;
25419;SDS011;13354;48.174;11.566;2024-01-30T08:04:38;9.93;;;3.50;;
25419;SDS011;13354;48.174;11.566;2024-01-30T08:07:03;5.10;;;3.05;;
25419;SDS011;13354;48.174;11.566;2024-01-30T08:09:29;12.50;;;3.15;;
25419;SDS011;13354;48.174;11.566;2024-01-30T08:11:54;11.77;;;3.60;;
25419;SDS011;13354;48.174;11.566;2024-01-30T08:14:20;6.97;;;3.40;;
25419;SDS011;13354;48.174;11.566;2024-01-30T08:16:45;9.30;;;3.58;;
25419;SDS011;13354;48.174;11.566;2024-01-30T08:19:10;7.55;;;3.25;;
25419;SDS011;13354;48.174;11.566;2024-01-30T08:21:36;8.93;;;3.42;;
25419;SDS011;13354;48.174;11.566;2024-01-30T08:24:04;12.02;;;3.63;;
25419;SDS011;13354;48.174;11.566;2024-01-30T08:26:33;8.25;;;3.60;;
25419;SDS011;13354;48.174;11.566;2024-01-30T08:28:59;7.85;;;3.33;;
25419;SDS011;13354;48.174;11.566;2024-01-30T08:31:24;7.18;;;3.85;;
25419;SDS011;13354;48.174;11.566;2024-01-30T08:33:50;8.70;;;3.17;;
25419;SDS011;13354;48.174;11.566;2024-01-30T08:36:16;7.57;;;3.10;;
25419;SDS011;13354;48.174;11.566;2024-01-30T08:38:42;6.93;;;3.42;;
25419;SDS011;13354;48.174;11.566;2024-01-30T08:41:07;10.48;;;3.60;;
25419;SDS011;13354;48.174;11.566;2024-01-30T08:43:33;7.95;;;3.20;;
25419;SDS011;13354;48.174;11.566;2024-01-30T08:45:59;15.52;;;4.00;;
25419;SDS011;13354;48.174;11.566;2024-01-30T08:48:25;15.70;;;4.97;;
25419;SDS011;13354;48.174;11.566;2024-01-30T08:50:51;10.63;;;4.10;;
25419;SDS011;13354;48.174;11.566;2024-01-30T08:53:16;8.23;;;3.72;;
25419;SDS011;13354;48.174;11.566;2024-01-30T08:55:41;8.48;;;3.33;;
25419;SDS011;13354;48.174;11.566;2024-01-30T08:58:07;10.90;;;4.20;;
25419;SDS011;13354;48.174;11.566;2024-01-30T09:00:32;21.73;;;5.63;;
25419;SDS011;13354;48.174;11.566;2024-01-30T09:02:58;19.60;;;5.20;;
25419;SDS011;13354;48.174;11.566;2024-01-30T09:05:23;14.73;;;4.38;;
25419;SDS011;13354;48.174;11.566;2024-01-30T09:07:49;11.10;;;3.95;;
25419;SDS011;13354;48.174;11.566;2024-01-30T09:10:14;11.55;;;3.58;;
25419;SDS011;13354;48.174;11.566;2024-01-30T09:12:40;12.70;;;3.83;;
25419;SDS011;13354;48.174;11.566;2024-01-30T09:15:06;12.25;;;3.95;;
25419;SDS011;13354;48.174;11.566;2024-01-30T09:17:32;15.48;;;3.97;;
25419;SDS011;13354;48.174;11.566;2024-01-30T09:19:58;11.38;;;3.70;;
25419;SDS011;13354;48.174;11.566;2024-01-30T09:22:24;8.63;;;3.20;;
25419;SDS011;13354;48.174;11.566;2024-01-30T09:24:49;6.22;;;3.28;;
25419;SDS011;13354;48.174;11.566;2024-01-30T09:27:15;12.60;;;3.95;;
25419;SDS011;13354;48.174;11.566;2024-01-30T09:29:40;8.85;;;3.50;;
25419;SDS011;13354;48.174;11.566;2024-01-30T09:32:06;14.43;;;3.78;;
25419;SDS011;13354;48.174;11.566;2024-01-30T09:34:32;17.45;;;4.25;;
25419;SDS011;13354;48.174;11.566;2024-01-30T09:36:58;17.95;;;5.13;;
25419;SDS011;13354;48.174;11.566;2024-01-30T09:39:25;14.60;;;4.43;;
25419;SDS011;13354;48.174;11.566;2024-01-30T09:44:30;17.70;;;4.32;;
25419;SDS011;13354;48.174;11.566;2024-01-30T09:46:56;14.88;;;4.22;;
25419;SDS011;13354;48.174;11.566;2024-01-30T09:49:23;19.92;;;4.60;;
25419;SDS011;13354;48.174;11.566;2024-01-30T09:51:50;12.85;;;4.25;;
25419;SDS011;13354;48.174;11.566;2024-01-30T09:54:18;16.98;;;4.25;;
25419;SDS011;13354;48.174;11.566;2024-01-30T09:56:44;15.57;;;4.07;;
25419;SDS011;13354;48.174;11.566;2024-01-30T09:59:09;12.80;;;3.90;;
25419;SDS011;13354;48.174;11.566;2024-01-30T10:01:35;12.50;;;3.80;;
25419;SDS011;13354;48.174;11.566;2024-01-30T10:04:01;18.30;;;4.53;;
25419;SDS011;13354;48.174;11.566;2024-01-30T10:06:27;10.90;;;4.05;;
25419;SDS011;13354;48.174;11.566;2024-01-30T10:08:53;18.15;;;4.60;;
25419;SDS011;13354;48.174;11.566;2024-01-30T10:11:18;14.40;;;5.38;;
25419;SDS011;13354;48.174;11.566;2024-01-30T10:13:44;15.55;;;5.57;;
25419;SDS011;13354;48.174;11.566;2024-01-30T10:16:09;13.35;;;5.43;;
25419;SDS011;13354;48.174;11.566;2024-01-30T10:18:34;20.13;;;5.38;;
25419;SDS011;13354;48.174;11.566;2024-01-30T10:21:00;12.05;;;4.80;;
25419;SDS011;13354;48.174;11.566;2024-01-30T10:23:25;15.10;;;5.15;;
25419;SDS011;13354;48.174;11.566;2024-01-30T10:25:51;12.75;;;4.53;;
25419;SDS011;13354;48.174;11.566;2024-01-30T10:28:17;12.32;;;4.72;;
25419;SDS011;13354;48.174;11.566;2024-01-30T10:30:42;11.48;;;4.88;;
25419;SDS011;13354;48.174;11.566;2024-01-30T10:33:08;12.52;;;4.63;;
25419;SDS011;13354;48.174;11.566;2024-01-30T10:35:33;20.27;;;6.00;;
25419;SDS011;13354;48.174;11.566;2024-01-30T10:37:59;17.77;;;5.57;;
25419;SDS011;13354;48.174;11.566;2024-01-30T10:40:27;21.73;;;5.68;;
25419;SDS011;13354;48.174;11.566;2024-01-30T10:42:53;29.05;;;7.78;;
25419;SDS011;13354;48.174;11.566;2024-01-30T10:45:20;21.05;;;8.60;;
25419;SDS011;13354;48.174;11.566;2024-01-30T10:47:50;6.82;;;3.75;;
25419;SDS011;13354;48.174;11.566;2024-01-30T10:50:18;7.15;;;2.88;;
25419;SDS011;13354;48.174;11.566;2024-01-30T10:52:44;10.70;;;3.35;;
25419;SDS011;13354;48.174;11.566;2024-01-30T10:55:11;9.65;;;2.90;;
25419;SDS011;13354;48.174;11.566;2024-01-30T10:57:38;9.73;;;2.15;;
25419;SDS011;13354;48.174;11.566;2024-01-30T11:00:05;6.45;;;2.05;;
25419;SDS011;13354;48.174;11.566;2024-01-30T11:02:39;2.05;;;1.50;;
25419;SDS011;13354;48.174;11.566;2024-01-30T11:05:06;4.82;;;2.20;;
25419;SDS011;13354;48.174;11.566;2024-01-30T11:07:31;9.95;;;5.20;;
25419;SDS011;13354;48.174;11.566;2024-01-30T11:12:23;5.65;;;1.70;;
25419;SDS011;13354;48.174;11.566;2024-01-30T11:14:49;6.80;;;2.30;;
25419;SDS011;13354;48.174;11.566;2024-01-30T11:17:15;5.07;;;2.10;;
25419;SDS011;13354;48.174;11.566;2024-01-30T11:19:41;5.50;;;1.90;;
25419;SDS011;13354;48.174;11.566;2024-01-30T11:22:07;4.25;;;1.50;;
25419;SDS011;13354;48.174;11.566;2024-01-30T11:24:39;4.78;;;1.55;;
25419;SDS011;13354;48.174;11.566;2024-01-30T11:27:09;3.72;;;1.65;;
25419;SDS011;13354;48.174;11.566;2024-01-30T11:29:37;5.47;;;1.95;;
25419;SDS011;13354;48.174;11.566;2024-01-30T11:32:05;4.55;;;1.80;;
25419;SDS011;13354;48.174;11.566;2024-01-30T11:34:31;3.13;;;1.70;;
25419;SDS011;13354;48.174;11.566;2024-01-30T11:36:59;2.70;;;1.65;;
25419;SDS011;13354;48.174;11.566;2024-01-30T11:39:31;4.15;;;1.92;;
25419;SDS011;13354;48.174;11.566;2024-01-30T11:41:57;3.13;;;1.90;;
25419;SDS011;13354;48.174;11.566;2024-01-30T11:44:24;5.93;;;2.00;;
25419;SDS011;13354;48.174;11.566;2024-01-30T11:46:52;2.60;;;1.48;;
25419;SDS011;13354;48.174;11.566;2024-01-30T11:49:18;4.28;;;1.98;;
25419;SDS011;13354;48.174;11.566;2024-01-30T11:51:45;7.65;;;3.90;;
25419;SDS011;13354;48.174;11.566;2024-01-30T11:54:11;6.15;;;2.15;;
25419;SDS011;13354;48.174;11.566;2024-01-30T11:56:36;4.45;;;1.95;;
25419;SDS011;13354;48.174;11.566;2024-01-30T11:59:03;6.22;;;2.08;;
25419;SDS011;13354;48.174;11.566;2024-01-30T12:01:29;3.75;;;2.03;;
25419;SDS011;13354;48.174;11.566;2024-01-30T12:03:56;6.43;;;1.80;;
25419;SDS011;13354;48.174;11.566;2024-01-30T12:06:22;9.50;;;1.90;;
25419;SDS011;13354;48.174;11.566;2024-01-30T12:09:01;8.35;;;1.77;;
25419;SDS011;13354;48.174;11.566;2024-01-30T12:11:31;4.00;;;2.13;;
25419;SDS011;13354;48.174;11.566;2024-01-30T12:13:56;5.97;;;2.10;;
25419;SDS011;13354;48.174;11.566;2024-01-30T12:16:22;5.82;;;2.05;;
25419;SDS011;13354;48.174;11.566;2024-01-30T12:18:48;6.07;;;1.80;;
25419;SDS011;13354;48.174;11.566;2024-01-30T12:21:16;5.32;;;2.03;;
25419;SDS011;13354;48.174;11.566;2024-01-30T12:23:43;5.93;;;2.40;;
25419;SDS011;13354;48.174;11.566;2024-01-30T12:26:08;8.73;;;2.42;;
25419;SDS011;13354;48.174;11.566;2024-01-30T12:28:35;7.57;;;2.22;;
25419;SDS011;13354;48.174;11.566;2024-01-30T12:31:01;6.82;;;2.70;;
25419;SDS011;13354;48.174;11.566;2024-01-30T12:33:28;3.28;;;1.83;;
25419;SDS011;13354;48.174;11.566;2024-01-30T12:35:54;6.40;;;2.08;;
25419;SDS011;13354;48.174;11.566;2024-01-30T12:38:20;5.55;;;1.85;;
25419;SDS011;13354;48.174;11.566;2024-01-30T12:40:45;2.28;;;1.92;;
25419;SDS011;13354;48.174;11.566;2024-01-30T12:43:11;3.72;;;1.67;;
25419;SDS011;13354;48.174;11.566;2024-01-30T12:45:38;3.40;;;1.30;;
25419;SDS011;13354;48.174;11.566;2024-01-30T12:48:04;4.50;;;1.48;;
25419;SDS011;13354;48.174;11.566;2024-01-30T12:50:30;6.80;;;1.70;;
25419;SDS011;13354;48.174;11.566;2024-01-30T12:52:55;2.75;;;1.50;;
25419;SDS011;13354;48.174;11.566;2024-01-30T12:55:21;7.20;;;2.70;;
25419;SDS011;13354;48.174;11.566;2024-01-30T12:57:46;5.00;;;1.60;;
25419;SDS011;13354;48.174;11.566;2024-01-30T13:00:11;3.10;;;2.03;;
25419;SDS011;13354;48.174;11.566;2024-01-30T13:02:37;7.15;;;2.10;;
25419;SDS011;13354;48.174;11.566;2024-01-30T13:05:03;3.80;;;1.65;;
25419;SDS011;13354;48.174;11.566;2024-01-30T13:07:29;11.50;;;2.55;;
25419;SDS011;13354;48.174;11.566;2024-01-30T13:09:54;5.10;;;1.50;;
25419;SDS011;13354;48.174;11.566;2024-01-30T13:12:20;4.93;;;1.67;;
25419;SDS011;13354;48.174;11.566;2024-01-30T13:14:45;4.30;;;1.83;;
25419;SDS011;13354;48.174;11.566;2024-01-30T13:17:10;4.43;;;1.60;;
25419;SDS011;13354;48.174;11.566;2024-01-30T13:19:36;2.85;;;1.20;;
25419;SDS011;13354;48.174;11.566;2024-01-30T13:22:01;6.68;;;1.80;;
25419;SDS011;13354;48.174;11.566;2024-01-30T13:24:27;4.13;;;1.73;;
25419;SDS011;13354;48.174;11.566;2024-01-30T13:26:52;2.92;;;1.60;;
25419;SDS011;13354;48.174;11.566;2024-01-30T13:29:18;7.57;;;1.60;;
25419;SDS011;13354;48.174;11.566;2024-01-30T13:31:43;7.22;;;1.92;;
25419;SDS011;13354;48.174;11.566;2024-01-30T13:34:11;6.68;;;2.10;;
25419;SDS011;13354;48.174;11.566;2024-01-30T13:36:36;4.22;;;1.80;;
25419;SDS011;13354;48.174;11.566;2024-01-30T13:39:01;4.72;;;1.65;;
25419;SDS011;13354;48.174;11.566;2024-01-30T13:41:27;5.00;;;1.48;;
25419;SDS011;13354;48.174;11.566;2024-01-30T13:43:54;9.00;;;2.08;;
25419;SDS011;13354;48.174;11.566;2024-01-30T13:46:20;4.80;;;2.08;;
25419;SDS011;13354;48.174;11.566;2024-01-30T13:48:45;6.43;;;2.55;;
25419;SDS011;13354;48.174;11.566;2024-01-30T13:51:11;8.95;;;2.15;;
25419;SDS011;13354;48.174;11.566;2024-01-30T13:53:38;7.95;;;2.45;;
25419;SDS011;13354;48.174;11.566;2024-01-30T13:56:03;5.22;;;2.15;;
25419;SDS011;13354;48.174;11.566;2024-01-30T13:58:29;4.70;;;2.35;;
25419;SDS011;13354;48.174;11.566;2024-01-30T14:00:55;6.95;;;2.95;;
25419;SDS011;13354;48.174;11.566;2024-01-30T14:03:20;4.95;;;2.30;;
25419;SDS011;13354;48.174;11.566;2024-01-30T14:05:45;9.55;;;2.70;;
25419;SDS011;13354;48.174;11.566;2024-01-30T14:08:11;6.55;;;2.08;;
25419;SDS011;13354;48.174;11.566;2024-01-30T14:10:36;8.27;;;2.20;;
25419;SDS011;13354;48.174;11.566;2024-01-30T14:13:01;3.55;;;2.13;;
25419;SDS011;13354;48.174;11.566;2024-01-30T14:15:27;5.57;;;2.17;;
25419;SDS011;13354;48.174;11.566;2024-01-30T14:17:52;11.63;;;2.63;;
25419;SDS011;13354;48.174;11.566;2024-01-30T14:20:18;6.22;;;1.95;;
25419;SDS011;13354;48.174;11.566;2024-01-30T14:22:43;3.75;;;1.88;;
25419;SDS011;13354;48.174;11.566;2024-01-30T14:25:09;7.57;;;2.58;;
25419;SDS011;13354;48.174;11.566;2024-01-30T14:27:34;8.43;;;2.47;;